createdAt,value
2023-03-13T00:00:56.993Z,99316.31
2023-03-13T00:03:23.775Z,99304.34
2023-03-13T00:05:50.310Z,99327.41
2023-03-13T00:08:16.821Z,99325.72
2023-03-13T00:10:43.324Z,99318.06
2023-03-13T00:13:10.388Z,99339.56
2023-03-13T00:15:36.953Z,99344.38
2023-03-13T00:18:03.758Z,99324.72
2023-03-13T00:20:30.305Z,99329.06
2023-03-13T00:22:57.317Z,99318.69
2023-03-13T00:25:23.852Z,99294.75
2023-03-13T00:27:50.483Z,99299.94
2023-03-13T00:30:17.307Z,99292.25
2023-03-13T00:32:48.778Z,99291.44
2023-03-13T00:35:16.330Z,99280.28
2023-03-13T00:37:43.249Z,99287.09
2023-03-13T00:40:10.752Z,99278.59
2023-03-13T00:42:37.311Z,99277.66
2023-03-13T00:45:04.378Z,99279.38
2023-03-13T00:47:30.938Z,99268.34
2023-03-13T00:49:57.832Z,99267.47
2023-03-13T00:52:25.054Z,99274.34
2023-03-13T00:54:51.673Z,99277.72
2023-03-13T00:57:18.192Z,99272.56
2023-03-13T00:59:44.727Z,99266.53
2023-03-13T01:02:11.345Z,99258.78
2023-03-13T01:04:37.909Z,99255.31
2023-03-13T01:07:04.415Z,99265.59
2023-03-13T01:09:30.970Z,99256.19
2023-03-13T01:11:57.487Z,99253.53
2023-03-13T01:14:23.993Z,99245.78
2023-03-13T01:16:50.672Z,99245.00
2023-03-13T01:19:17.385Z,99242.38
2023-03-13T01:21:45.136Z,99235.41
2023-03-13T01:24:11.963Z,99224.41
2023-03-13T01:26:38.538Z,99216.56
2023-03-13T01:29:05.213Z,99203.69
2023-03-13T01:31:34.560Z,99206.25
2023-03-13T01:34:04.800Z,99199.19
2023-03-13T01:36:32.517Z,99190.56
2023-03-13T01:39:01.700Z,99188.94
2023-03-13T01:41:30.940Z,99183.78
2023-03-13T01:43:58.322Z,99172.72
2023-03-13T01:46:30.143Z,99172.63
2023-03-13T01:49:09.081Z,99162.34
2023-03-13T01:52:01.288Z,99164.00
2023-03-13T01:54:39.269Z,99142.66
2023-03-13T01:57:29.533Z,99143.44
2023-03-13T02:00:05.039Z,99126.28
2023-03-13T02:02:32.296Z,99130.53
2023-03-13T02:05:02.962Z,99127.97
2023-03-13T02:07:41.553Z,99127.94
2023-03-13T02:10:10.198Z,99124.50
2023-03-13T02:12:39.641Z,99113.34
2023-03-13T02:15:11.674Z,99103.09
2023-03-13T02:17:40.636Z,99092.91
2023-03-13T02:20:07.964Z,99085.09
2023-03-13T02:22:54.045Z,99077.44
2023-03-13T02:25:23.293Z,99077.41
2023-03-13T02:27:58.374Z,99059.53
2023-03-13T02:30:25.187Z,99047.53
2023-03-13T02:32:52.009Z,99039.03
2023-03-13T02:35:21.886Z,99030.44
2023-03-13T02:37:52.702Z,99036.44
2023-03-13T02:40:26.544Z,99026.06
2023-03-13T02:42:55.578Z,99024.38
2023-03-13T02:45:22.592Z,99033.75
2023-03-13T02:47:49.371Z,99032.03
2023-03-13T02:50:16.498Z,99018.34
2023-03-13T02:52:51.014Z,99020.03
2023-03-13T02:55:24.529Z,99015.75
2023-03-13T02:57:51.186Z,99010.59
2023-03-13T03:00:18.412Z,99004.59
2023-03-13T03:02:45.640Z,98992.56
2023-03-13T03:05:12.874Z,98982.38
2023-03-13T03:07:39.425Z,98969.53
2023-03-13T03:10:06.788Z,98965.19
2023-03-13T03:12:33.381Z,98962.72
2023-03-13T03:14:59.986Z,98965.34
2023-03-13T03:17:26.542Z,98955.94
2023-03-13T03:19:53.071Z,98957.72
2023-03-13T03:22:19.589Z,98942.25
2023-03-13T03:24:46.090Z,98944.00
2023-03-13T03:27:12.614Z,98944.00
2023-03-13T03:29:39.186Z,98949.13
2023-03-13T03:32:06.057Z,98949.13
2023-03-13T03:34:33.168Z,98949.94
2023-03-13T03:36:59.727Z,98951.59
2023-03-13T03:39:26.268Z,98948.16
2023-03-13T03:41:52.790Z,98940.47
2023-03-13T03:44:19.302Z,98934.44
2023-03-13T03:46:45.844Z,98937.03
2023-03-13T03:49:12.440Z,98928.44
2023-03-13T03:51:39.583Z,98934.47
2023-03-13T03:54:06.161Z,98927.59
2023-03-13T03:56:32.690Z,98930.16
2023-03-13T03:58:59.237Z,98920.75
2023-03-13T04:01:25.748Z,98911.41
2023-03-13T04:03:52.277Z,98906.22
2023-03-13T04:06:18.783Z,98903.69
2023-03-13T04:08:45.322Z,98897.72
2023-03-13T04:11:11.855Z,98903.75
2023-03-13T04:13:38.351Z,98901.22
2023-03-13T04:16:11.777Z,98900.34
2023-03-13T04:18:38.299Z,98896.88
2023-03-13T04:21:06.041Z,98892.59
2023-03-13T04:23:32.622Z,98887.50
2023-03-13T04:25:59.124Z,98890.84
2023-03-13T04:28:25.666Z,98893.44
2023-03-13T04:30:57.361Z,98883.16
2023-03-13T04:33:24.927Z,98870.25
2023-03-13T04:35:51.535Z,98869.41
2023-03-13T04:38:18.086Z,98857.41
2023-03-13T04:40:45.674Z,98848.78
2023-03-13T04:43:12.839Z,98841.09
2023-03-13T04:45:39.338Z,98840.28
2023-03-13T04:48:06.145Z,98846.25
2023-03-13T04:50:32.695Z,98836.81
2023-03-13T04:52:59.217Z,98832.63
2023-03-13T04:55:25.710Z,98830.00
2023-03-13T04:57:52.301Z,98832.53
2023-03-13T05:00:19.154Z,98835.06
2023-03-13T05:02:45.676Z,98835.94
2023-03-13T05:05:12.283Z,98844.50
2023-03-13T05:07:39.021Z,98843.56
2023-03-13T05:10:05.685Z,98838.50
2023-03-13T05:12:32.253Z,98841.81
2023-03-13T05:14:58.838Z,98838.44
2023-03-13T05:17:25.390Z,98840.97
2023-03-13T05:19:51.866Z,98840.06
2023-03-13T05:22:18.370Z,98824.69
2023-03-13T05:24:45.068Z,98828.13
2023-03-13T05:27:11.596Z,98830.56
2023-03-13T05:29:38.253Z,98833.06
2023-03-13T05:32:04.845Z,98830.50
2023-03-13T05:34:31.365Z,98832.16
2023-03-13T05:36:57.940Z,98829.53
2023-03-13T05:39:24.481Z,98821.84
2023-03-13T05:41:50.975Z,98817.53
2023-03-13T05:44:17.640Z,98812.41
2023-03-13T05:46:44.191Z,98820.09
2023-03-13T05:49:10.768Z,98820.91
2023-03-13T05:51:37.285Z,98821.78
2023-03-13T05:54:03.920Z,98814.00
2023-03-13T05:56:30.495Z,98811.41
2023-03-13T05:58:56.995Z,98809.84
2023-03-13T06:01:23.538Z,98806.34
2023-03-13T06:03:50.199Z,98808.91
2023-03-13T06:06:16.817Z,98804.56
2023-03-13T06:08:43.319Z,98813.91
2023-03-13T06:11:09.890Z,98819.84
2023-03-13T06:13:36.423Z,98815.56
2023-03-13T06:16:03.354Z,98821.50
2023-03-13T06:18:30.137Z,98825.88
2023-03-13T06:20:59.036Z,98823.31
2023-03-13T06:23:25.781Z,98835.16
2023-03-13T06:25:52.441Z,98855.47
2023-03-13T06:28:19.465Z,98853.72
2023-03-13T06:30:46.405Z,98840.16
2023-03-13T06:33:13.085Z,98838.34
2023-03-13T06:35:55.071Z,98817.09
2023-03-13T06:38:22.209Z,98813.69
2023-03-13T06:40:48.928Z,98825.66
2023-03-13T06:43:15.480Z,98819.56
2023-03-13T06:45:42.133Z,98802.56
2023-03-13T06:48:08.664Z,98794.91
2023-03-13T06:50:39.109Z,98792.34
2023-03-13T06:53:06.159Z,98778.69
2023-03-13T06:55:32.863Z,98779.69
2023-03-13T06:57:59.449Z,98766.03
2023-03-13T07:00:26.108Z,98772.91
2023-03-13T07:02:52.695Z,98768.69
2023-03-13T07:05:19.933Z,98767.84
2023-03-13T07:07:46.497Z,98769.59
2023-03-13T07:10:13.296Z,98756.78
2023-03-13T07:12:39.887Z,98756.81
2023-03-13T07:15:07.271Z,98747.47
2023-03-13T07:17:34.242Z,98744.09
2023-03-13T07:20:00.938Z,98742.47
2023-03-13T07:22:27.564Z,98734.88
2023-03-13T07:24:54.178Z,98731.53
2023-03-13T07:27:23.452Z,98727.28
2023-03-13T07:29:50.018Z,98729.84
2023-03-13T07:32:17.544Z,98732.44
2023-03-13T07:34:44.734Z,98735.06
2023-03-13T07:37:13.065Z,98723.09
2023-03-13T07:39:39.747Z,98711.09
2023-03-13T07:42:06.492Z,98712.81
2023-03-13T07:44:33.041Z,98709.38
2023-03-13T07:47:00.750Z,98705.94
2023-03-13T07:49:27.512Z,98704.25
2023-03-13T07:51:54.317Z,98701.69
2023-03-13T07:54:20.914Z,98697.44
2023-03-13T07:56:47.473Z,98694.00
2023-03-13T07:59:13.989Z,98698.31
2023-03-13T08:01:40.583Z,98700.94
2023-03-13T08:04:07.626Z,98700.09
2023-03-13T08:06:36.598Z,98706.09
2023-03-13T08:09:03.726Z,98703.53
2023-03-13T08:11:30.257Z,98702.72
2023-03-13T08:13:57.640Z,98695.88
2023-03-13T08:16:29.581Z,98699.38
2023-03-13T08:18:58.479Z,98706.22
2023-03-13T08:21:30.536Z,98714.78
2023-03-13T08:23:59.726Z,98716.53
2023-03-13T08:26:28.427Z,98720.84
2023-03-13T08:28:57.808Z,98732.03
2023-03-13T08:31:26.293Z,98738.06
2023-03-13T08:33:53.554Z,98750.09
2023-03-13T08:36:26.185Z,98755.22
2023-03-13T08:38:55.169Z,98775.84
2023-03-13T08:41:24.774Z,98779.28
2023-03-13T08:43:55.165Z,98804.16
2023-03-13T08:46:22.273Z,98821.34
2023-03-13T08:48:53.971Z,98847.91
2023-03-13T08:51:23.297Z,98886.56
2023-03-13T08:53:50.580Z,98911.47
2023-03-13T08:56:20.159Z,98942.41
2023-03-13T08:58:54.219Z,98958.75
2023-03-13T09:01:23.401Z,98977.63
2023-03-13T09:03:50.627Z,98989.66
2023-03-13T09:06:17.508Z,99012.00
2023-03-13T09:08:44.966Z,99017.16
2023-03-13T09:11:17.126Z,99036.91
2023-03-13T09:13:46.107Z,99037.78
2023-03-13T09:16:24.220Z,99055.81
2023-03-13T09:18:51.890Z,99063.56
2023-03-13T09:21:27.450Z,99064.38
2023-03-13T09:23:54.384Z,99079.03
2023-03-13T09:26:23.384Z,99089.31
2023-03-13T09:28:51.641Z,99101.38
2023-03-13T09:31:19.451Z,99122.00
2023-03-13T09:33:47.721Z,99127.09
2023-03-13T09:36:14.905Z,99144.31
2023-03-13T09:38:41.551Z,99146.00
2023-03-13T09:41:17.339Z,99145.97
2023-03-13T09:44:02.124Z,99139.03
2023-03-13T09:46:37.029Z,99145.06
2023-03-13T09:49:31.002Z,99131.22
2023-03-13T09:52:17.620Z,99133.75
2023-03-13T09:54:50.970Z,99125.94
2023-03-13T09:57:24.246Z,99135.38
2023-03-13T09:59:59.077Z,99143.09
2023-03-13T10:02:31.353Z,99142.22
2023-03-13T10:05:10.793Z,99135.28
2023-03-13T10:07:37.377Z,99129.19
2023-03-13T10:10:08.042Z,99132.56
2023-03-13T10:12:52.585Z,99130.81
2023-03-13T10:15:43.479Z,99131.63
2023-03-13T10:18:20.543Z,99123.88
2023-03-13T10:20:50.596Z,99127.34
2023-03-13T10:23:27.653Z,99128.06
2023-03-13T10:25:54.280Z,99134.91
2023-03-13T10:28:22.557Z,99120.09
2023-03-13T10:30:54.414Z,99120.06
2023-03-13T10:33:29.949Z,99125.25
2023-03-13T10:36:08.046Z,99118.31
2023-03-13T10:38:46.324Z,99099.25
2023-03-13T10:41:38.975Z,99096.56
2023-03-13T10:44:14.918Z,99089.56
2023-03-13T10:46:43.464Z,99083.59
2023-03-13T10:49:16.099Z,99079.22
2023-03-13T10:51:50.678Z,99080.06
2023-03-13T10:54:28.169Z,99083.63
2023-03-13T10:57:19.969Z,99073.16
2023-03-13T10:59:50.076Z,99065.34
2023-03-13T11:02:27.243Z,99065.28
2023-03-13T11:04:54.351Z,99066.94
2023-03-13T11:07:36.216Z,99059.91
2023-03-13T11:10:20.913Z,99061.59
2023-03-13T11:12:53.155Z,99060.72
2023-03-13T11:15:31.028Z,99048.47
2023-03-13T11:18:04.794Z,99048.38
2023-03-13T11:20:36.009Z,99034.50
2023-03-13T11:23:05.948Z,99040.47
2023-03-13T11:25:43.609Z,99037.88
2023-03-13T11:28:29.886Z,99031.00
2023-03-13T11:31:13.970Z,99024.88
2023-03-13T11:33:58.934Z,99017.84
2023-03-13T11:36:53.574Z,98995.28
2023-03-13T11:39:44.540Z,98998.59
2023-03-13T11:42:23.197Z,98996.16
2023-03-13T11:45:20.294Z,98995.16
2023-03-13T11:48:01.010Z,98987.13
2023-03-13T11:50:56.964Z,98987.88
2023-03-13T11:53:26.219Z,98984.28
2023-03-13T11:56:04.569Z,98979.06
2023-03-13T11:58:55.984Z,98967.84
2023-03-13T12:01:30.086Z,98966.69
2023-03-13T12:04:25.683Z,98964.97
2023-03-13T12:07:05.363Z,98960.47
2023-03-13T12:09:41.929Z,98947.47
2023-03-13T12:12:48.770Z,98938.75
2023-03-13T12:15:38.003Z,98940.25
2023-03-13T12:18:04.590Z,98926.41
2023-03-13T12:20:50.185Z,98921.09
2023-03-13T12:23:26.267Z,98915.84
2023-03-13T12:26:06.147Z,98910.72
2023-03-13T12:28:45.638Z,98911.41
2023-03-13T12:31:36.285Z,98901.81
2023-03-13T12:34:22.294Z,98904.31
2023-03-13T12:36:54.122Z,98904.16
2023-03-13T12:39:40.634Z,98899.66
2023-03-13T12:42:07.774Z,98890.78
2023-03-13T12:44:34.833Z,98878.75
2023-03-13T12:47:23.276Z,98869.41
2023-03-13T12:50:07.858Z,98862.38
2023-03-13T12:52:37.441Z,98863.03
2023-03-13T12:55:19.185Z,98863.84
2023-03-13T12:58:01.015Z,98856.16
2023-03-13T13:00:30.273Z,98842.25
2023-03-13T13:03:31.150Z,98824.97
2023-03-13T13:06:15.223Z,98820.75
2023-03-13T13:08:46.939Z,98817.16
2023-03-13T13:11:35.268Z,98808.47
2023-03-13T13:14:06.005Z,98810.28
2023-03-13T13:16:33.598Z,98803.53
2023-03-13T13:19:41.620Z,98804.59
2023-03-13T13:22:36.701Z,98793.34
2023-03-13T13:25:18.379Z,98792.25
2023-03-13T13:27:44.852Z,98775.69
2023-03-13T13:30:17.409Z,98771.28
2023-03-13T13:32:48.042Z,98773.00
2023-03-13T13:35:23.879Z,98761.72
2023-03-13T13:37:50.750Z,98751.41
2023-03-13T13:40:23.848Z,98749.22
2023-03-13T13:42:59.108Z,98751.84
2023-03-13T13:45:27.659Z,98750.91
2023-03-13T13:48:16.038Z,98748.41
2023-03-13T13:51:18.638Z,98739.75
2023-03-13T13:54:02.590Z,98740.53
2023-03-13T13:56:32.442Z,98736.47
2023-03-13T13:59:04.884Z,98743.28
2023-03-13T14:01:33.523Z,98744.94
2023-03-13T14:04:35.384Z,98731.16
2023-03-13T14:07:04.726Z,98734.75
2023-03-13T14:09:40.451Z,98730.53
2023-03-13T14:12:25.172Z,98722.59
2023-03-13T14:15:24.283Z,98719.94
2023-03-13T14:17:57.258Z,98736.66
2023-03-13T14:20:30.534Z,98726.41
2023-03-13T14:23:01.587Z,98723.16
2023-03-13T14:25:41.650Z,98717.03
2023-03-13T14:28:20.361Z,98716.19
2023-03-13T14:30:49.463Z,98711.31
2023-03-13T14:33:16.832Z,98717.53
2023-03-13T14:35:43.871Z,98719.47
2023-03-13T14:38:22.771Z,98715.97
2023-03-13T14:40:51.173Z,98707.28
2023-03-13T14:43:22.817Z,98711.38
2023-03-13T14:45:50.300Z,98701.28
2023-03-13T14:48:27.979Z,98699.38
2023-03-13T14:51:15.133Z,98694.34
2023-03-13T14:53:54.070Z,98701.06
2023-03-13T14:56:21.092Z,98695.13
2023-03-13T14:58:51.635Z,98689.09
2023-03-13T15:01:31.224Z,98686.47
2023-03-13T15:03:57.861Z,98685.84
2023-03-13T15:06:26.090Z,98684.06
2023-03-13T15:09:15.703Z,98685.75
2023-03-13T15:11:54.694Z,98683.00
2023-03-13T15:14:53.996Z,98680.59
2023-03-13T15:17:26.036Z,98678.91
2023-03-13T15:19:58.162Z,98679.88
2023-03-13T15:22:32.816Z,98678.16
2023-03-13T15:25:07.959Z,98682.72
2023-03-13T15:27:35.266Z,98673.94
2023-03-13T15:30:02.045Z,98663.56
2023-03-13T15:32:35.985Z,98644.69
2023-03-13T15:35:03.404Z,98653.44
2023-03-13T15:37:31.033Z,98639.53
2023-03-13T15:39:58.088Z,98658.69
2023-03-13T15:42:25.941Z,98657.88
2023-03-13T15:44:52.524Z,98648.59
2023-03-13T15:47:22.090Z,98641.63
2023-03-13T15:49:48.819Z,98642.66
2023-03-13T15:52:22.983Z,98643.69
2023-03-13T15:54:50.321Z,98646.06
2023-03-13T15:57:20.077Z,98639.13
2023-03-13T15:59:46.590Z,98636.50
2023-03-13T16:02:23.971Z,98639.03
2023-03-13T16:04:52.013Z,98634.72
2023-03-13T16:07:21.887Z,98630.63
2023-03-13T16:09:49.044Z,98620.41
2023-03-13T16:12:15.622Z,98618.56
2023-03-13T16:14:42.262Z,98621.16
2023-03-13T16:17:20.287Z,98603.03
2023-03-13T16:19:47.938Z,98597.91
2023-03-13T16:22:15.095Z,98591.91
2023-03-13T16:24:42.318Z,98582.53
2023-03-13T16:27:19.830Z,98560.81
2023-03-13T16:29:46.679Z,98567.78
2023-03-13T16:32:16.199Z,98554.19
2023-03-13T16:34:43.168Z,98566.19
2023-03-13T16:37:12.808Z,98580.03
2023-03-13T16:39:39.334Z,98573.25
2023-03-13T16:42:05.874Z,98582.78
2023-03-13T16:44:32.436Z,98558.03
2023-03-13T16:47:05.070Z,98551.06
2023-03-13T16:49:32.521Z,98550.22
2023-03-13T16:51:59.104Z,98535.16
2023-03-13T16:54:25.671Z,98519.81
2023-03-13T16:56:52.364Z,98506.06
2023-03-13T16:59:19.076Z,98491.50
2023-03-13T17:01:47.099Z,98485.75
2023-03-13T17:04:14.420Z,98479.94
2023-03-13T17:06:42.935Z,98478.25
2023-03-13T17:09:13.634Z,98489.50
2023-03-13T17:11:40.310Z,98494.75
2023-03-13T17:14:07.185Z,98493.13
2023-03-13T17:16:36.409Z,98485.47
2023-03-13T17:19:03.690Z,98506.09
2023-03-13T17:21:32.159Z,98531.00
2023-03-13T17:24:00.537Z,98627.75
2023-03-13T17:26:33.159Z,98717.00
2023-03-13T17:29:00.562Z,98661.81
2023-03-13T17:31:28.652Z,98676.34
2023-03-13T17:33:55.226Z,98685.16
2023-03-13T17:36:28.516Z,98570.09
2023-03-13T17:39:00.189Z,98456.47
2023-03-13T17:41:29.578Z,98411.66
2023-03-13T17:43:56.959Z,98361.78
2023-03-13T17:46:30.058Z,98312.81
2023-03-13T17:48:57.239Z,98279.28
2023-03-13T17:51:26.907Z,98275.19
2023-03-13T17:53:55.027Z,98265.56
2023-03-13T17:56:23.065Z,98294.72
2023-03-13T17:58:51.316Z,98324.78
2023-03-13T18:01:21.533Z,98354.06
2023-03-13T18:03:49.171Z,98390.19
2023-03-13T18:06:17.725Z,98402.91
2023-03-13T18:08:44.931Z,98419.53
2023-03-13T18:11:12.098Z,98412.84
2023-03-13T18:13:39.388Z,98406.16
2023-03-13T18:16:40.545Z,98412.34
2023-03-13T18:19:15.256Z,98403.84
2023-03-13T18:21:43.501Z,98382.66
2023-03-13T18:24:11.371Z,98385.41
2023-03-13T18:26:40.003Z,98396.69
2023-03-13T18:29:13.824Z,98389.06
2023-03-13T18:31:43.657Z,98395.09
2023-03-13T18:34:11.672Z,98406.19
2023-03-13T18:36:38.664Z,98404.56
2023-03-13T18:39:06.408Z,98383.91
2023-03-13T18:41:34.309Z,98370.13
2023-03-13T18:44:03.737Z,98395.09
2023-03-13T18:46:33.440Z,98390.81
2023-03-13T18:49:01.148Z,98398.53
2023-03-13T18:51:28.638Z,98397.66
2023-03-13T18:53:58.038Z,98434.59
2023-03-13T18:56:28.496Z,98487.88
2023-03-13T18:58:56.022Z,98631.47
2023-03-13T19:01:25.654Z,98766.75
2023-03-13T19:03:52.549Z,98888.16
2023-03-13T19:06:24.815Z,98954.41
2023-03-13T19:08:54.423Z,99038.63
2023-03-13T19:11:23.747Z,99060.94
2023-03-13T19:13:50.585Z,99070.28
2023-03-13T19:16:36.053Z,99096.88
2023-03-13T19:19:04.282Z,99153.47
2023-03-13T19:21:31.890Z,99202.28
2023-03-13T19:23:58.646Z,99157.63
2023-03-13T19:26:39.164Z,99179.91
2023-03-13T19:29:14.323Z,99172.94
2023-03-13T19:31:41.485Z,99205.50
2023-03-13T19:34:08.219Z,99231.22
2023-03-13T19:36:39.737Z,99248.38
2023-03-13T19:39:13.525Z,99279.25
2023-03-13T19:41:40.045Z,99291.19
2023-03-13T19:44:06.693Z,99322.81
2023-03-13T19:46:33.953Z,99317.66
2023-03-13T19:49:02.014Z,99327.81
2023-03-13T19:51:29.706Z,99319.25
2023-03-13T19:53:57.252Z,99352.63
2023-03-13T19:56:29.554Z,99353.34
2023-03-13T19:59:01.701Z,99371.34
2023-03-13T20:01:28.559Z,99374.69
2023-03-13T20:03:55.200Z,99392.63
2023-03-13T20:06:27.762Z,99416.66
2023-03-13T20:08:59.125Z,99415.66
2023-03-13T20:11:26.489Z,99419.09
2023-03-13T20:13:53.690Z,99414.88
2023-03-13T20:16:20.923Z,99438.63
2023-03-13T20:18:50.400Z,99427.53
2023-03-13T20:21:18.099Z,99435.88
2023-03-13T20:23:47.385Z,99462.38
2023-03-13T20:26:15.738Z,99474.25
2023-03-13T20:28:45.834Z,99481.31
2023-03-13T20:31:13.152Z,99476.00
2023-03-13T20:33:40.571Z,99479.63
2023-03-13T20:36:11.239Z,99471.59
2023-03-13T20:38:39.140Z,99466.13
2023-03-13T20:41:06.795Z,99434.38
2023-03-13T20:43:34.557Z,99430.00
2023-03-13T20:46:01.371Z,99411.16
2023-03-13T20:48:29.376Z,99396.59
2023-03-13T20:50:58.689Z,99368.41
2023-03-13T20:53:26.888Z,99362.28
2023-03-13T20:55:54.494Z,99311.91
2023-03-13T20:58:21.359Z,99315.22
2023-03-13T21:00:48.771Z,99341.66
2023-03-13T21:03:17.253Z,99349.44
2023-03-13T21:05:44.635Z,99317.84
2023-03-13T21:08:11.812Z,99319.50
2023-03-13T21:10:40.063Z,99317.84
2023-03-13T21:13:07.612Z,99276.16
2023-03-13T21:15:34.604Z,99282.97
2023-03-13T21:18:01.315Z,99260.75
2023-03-13T21:20:28.989Z,99264.09
2023-03-13T21:22:55.682Z,99288.75
2023-03-13T21:25:22.905Z,99273.56
2023-03-13T21:27:49.834Z,99304.16
2023-03-13T21:30:19.846Z,99318.72
2023-03-13T21:32:47.502Z,99306.69
2023-03-13T21:35:15.532Z,99301.66
2023-03-13T21:37:42.848Z,99344.38
2023-03-13T21:40:10.917Z,99352.97
2023-03-13T21:42:37.701Z,99328.38
2023-03-13T21:45:06.587Z,99353.88
2023-03-13T21:47:36.901Z,99360.00
2023-03-13T21:50:06.092Z,99344.72
2023-03-13T21:52:34.459Z,99368.41
2023-03-13T21:55:03.467Z,99366.59
2023-03-13T21:57:30.041Z,99383.06
2023-03-13T21:59:56.638Z,99364.28
2023-03-13T22:02:23.286Z,99359.22
2023-03-13T22:04:49.836Z,99341.25
2023-03-13T22:07:16.375Z,99352.50
2023-03-13T22:09:42.918Z,99334.53
2023-03-13T22:12:09.416Z,99318.34
2023-03-13T22:14:36.116Z,99343.66
2023-03-13T22:17:02.677Z,99361.84
2023-03-13T22:19:29.265Z,99355.69
2023-03-13T22:21:55.802Z,99318.25
2023-03-13T22:24:22.438Z,99322.28
2023-03-13T22:26:48.969Z,99332.53
2023-03-13T22:29:16.344Z,99281.56
2023-03-13T22:31:43.510Z,99303.56
2023-03-13T22:34:10.106Z,99291.63
2023-03-13T22:36:38.076Z,99323.16
2023-03-13T22:39:04.646Z,99332.66
2023-03-13T22:41:31.186Z,99331.75
2023-03-13T22:43:57.743Z,99369.31
2023-03-13T22:46:24.515Z,99387.16
2023-03-13T22:48:51.025Z,99381.19
2023-03-13T22:51:17.655Z,99391.44
2023-03-13T22:53:44.884Z,99390.56
2023-03-13T22:56:12.408Z,99382.09
2023-03-13T22:58:40.833Z,99382.94
2023-03-13T23:01:16.691Z,99381.16
2023-03-13T23:03:44.055Z,99399.81
2023-03-13T23:06:23.668Z,99394.81
2023-03-13T23:08:50.722Z,99393.09
2023-03-13T23:11:18.350Z,99379.28
2023-03-13T23:13:45.359Z,99353.00
2023-03-13T23:16:12.854Z,99349.47
2023-03-13T23:18:39.940Z,99326.47
2023-03-13T23:21:09.537Z,99318.59
2023-03-13T23:23:36.212Z,99323.47
2023-03-13T23:26:04.546Z,99304.03
2023-03-13T23:28:31.318Z,99287.16
2023-03-13T23:30:57.829Z,99318.97
2023-03-13T23:33:24.383Z,99286.41
2023-03-13T23:35:51.008Z,99255.59
2023-03-13T23:38:20.659Z,99223.69
2023-03-13T23:40:47.772Z,99207.59
2023-03-13T23:43:14.287Z,99191.25
2023-03-13T23:45:40.821Z,99165.53
2023-03-13T23:48:07.373Z,99146.75
2023-03-13T23:50:33.921Z,99118.56
2023-03-13T23:53:00.461Z,99115.91
2023-03-13T23:55:27.051Z,99111.53
2023-03-13T23:57:53.719Z,99091.06
